createdAt,value
2022-09-05T00:01:44.136Z,65.87
2022-09-05T00:04:25.461Z,65.92
2022-09-05T00:07:05.633Z,66.09
2022-09-05T00:09:57.432Z,66.18
2022-09-05T00:12:28.967Z,67.12
2022-09-05T00:15:19.272Z,66.96
2022-09-05T00:21:08.196Z,66.79
2022-09-05T00:24:32.277Z,66.94
2022-09-05T00:24:37.273Z,66.89
2022-09-05T00:27:12.098Z,66.96
2022-09-05T00:31:07.125Z,67.08
2022-09-05T00:33:19.432Z,67.00
2022-09-05T00:36:06.441Z,67.21
2022-09-05T00:38:40.152Z,67.35
2022-09-05T00:41:13.875Z,67.48
2022-09-05T00:43:46.127Z,67.39
2022-09-05T00:46:19.181Z,67.42
2022-09-05T00:48:54.412Z,67.12
2022-09-05T00:51:34.939Z,67.65
2022-09-05T00:54:26.324Z,67.72
2022-09-05T00:57:33.253Z,67.88
2022-09-05T01:00:17.276Z,68.38
2022-09-05T01:03:18.949Z,67.78
2022-09-05T01:06:17.427Z,68.33
2022-09-05T01:09:08.535Z,67.95
2022-09-05T01:11:49.384Z,68.51
2022-09-05T01:14:38.396Z,68.26
2022-09-05T01:17:29.052Z,68.10
2022-09-05T01:20:25.797Z,68.17
2022-09-05T01:23:19.719Z,68.23
2022-09-05T01:25:59.274Z,68.71
2022-09-05T01:29:16.478Z,68.71
2022-09-05T01:31:33.627Z,68.75
2022-09-05T01:34:11.023Z,68.66
2022-09-05T01:36:53.947Z,68.58
2022-09-05T01:40:10.696Z,68.49
2022-09-05T01:42:37.007Z,68.65
2022-09-05T01:45:17.364Z,68.46
2022-09-05T01:47:53.267Z,68.40
2022-09-05T01:50:40.680Z,68.32
2022-09-05T01:53:25.820Z,69.07
2022-09-05T01:56:31.452Z,68.76
2022-09-05T01:59:23.811Z,68.48
2022-09-05T02:02:20.113Z,68.34
2022-09-05T02:05:12.811Z,68.49
2022-09-05T02:08:00.724Z,68.52
2022-09-05T02:10:54.893Z,68.24
2022-09-05T02:13:30.279Z,68.13
2022-09-05T02:16:06.066Z,68.67
2022-09-05T02:18:52.470Z,68.66
2022-09-05T02:21:31.632Z,68.79
2022-09-05T02:24:10.456Z,68.48
2022-09-05T02:26:49.083Z,68.70
2022-09-05T02:29:30.045Z,68.80
2022-09-05T02:32:12.917Z,68.40
2022-09-05T02:34:53.560Z,68.56
2022-09-05T02:39:02.515Z,68.17
2022-09-05T02:45:01.323Z,68.73
2022-09-05T02:45:19.648Z,69.26
2022-09-05T02:46:28.481Z,68.76
2022-09-05T02:49:07.739Z,68.37
2022-09-05T02:57:27.665Z,68.09
2022-09-05T02:57:42.314Z,68.19
2022-09-05T02:58:07.658Z,67.86
2022-09-05T03:00:43.510Z,67.99
2022-09-05T03:03:24.626Z,68.29
2022-09-05T03:06:01.730Z,68.35
2022-09-05T03:09:16.563Z,68.29
2022-09-05T03:12:29.395Z,68.09
2022-09-05T03:15:46.907Z,68.44
2022-09-05T03:18:48.731Z,69.54
2022-09-05T03:22:09.387Z,69.31
2022-09-05T03:25:21.495Z,69.65
2022-09-05T03:28:32.620Z,70.21
2022-09-05T03:31:44.166Z,70.19
2022-09-05T03:34:41.516Z,69.52
2022-09-05T03:37:42.544Z,69.04
2022-09-05T03:40:36.677Z,70.10
2022-09-05T03:43:38.988Z,69.20
2022-09-05T03:46:29.250Z,68.45
2022-09-05T03:50:18.725Z,68.46
2022-09-05T03:57:11.772Z,68.61
2022-09-05T03:57:24.170Z,68.59
2022-09-05T03:58:57.660Z,67.95
2022-09-05T04:02:59.987Z,68.18
2022-09-05T04:08:14.026Z,67.51
2022-09-05T04:08:19.557Z,68.04
2022-09-05T04:10:33.827Z,67.95
2022-09-05T04:13:09.768Z,68.53
2022-09-05T04:15:44.757Z,68.93
2022-09-05T04:18:33.247Z,68.89
2022-09-05T04:21:09.759Z,69.03
2022-09-05T04:23:48.739Z,69.37
2022-09-05T04:26:36.474Z,69.98
2022-09-05T04:29:18.385Z,69.97
2022-09-05T04:32:06.535Z,70.25
2022-09-05T04:35:04.048Z,69.69
2022-09-05T04:37:48.711Z,69.83
2022-09-05T04:40:48.009Z,70.18
2022-09-05T04:43:29.987Z,70.08
2022-09-05T04:46:10.537Z,70.02
2022-09-05T04:48:46.889Z,70.51
2022-09-05T04:52:00.380Z,70.16
2022-09-05T04:54:36.433Z,69.72
2022-09-05T04:57:26.171Z,69.16
2022-09-05T05:05:58.697Z,69.38
2022-09-05T05:06:17.548Z,68.68
2022-09-05T05:06:31.699Z,68.80
2022-09-05T05:08:56.910Z,68.63
2022-09-05T05:16:29.910Z,67.87
2022-09-05T05:18:12.504Z,67.67
2022-09-05T05:18:14.521Z,66.87
2022-09-05T05:20:39.854Z,66.23
2022-09-05T05:23:14.629Z,66.35
2022-09-05T05:25:50.674Z,66.15
2022-09-05T05:28:29.150Z,65.23
2022-09-05T05:31:11.901Z,64.62
2022-09-05T05:33:48.485Z,64.40
2022-09-05T05:36:23.955Z,64.19
2022-09-05T05:39:00.837Z,63.64
2022-09-05T05:41:38.484Z,62.96
2022-09-05T05:44:20.363Z,63.07
2022-09-05T05:47:00.375Z,62.97
2022-09-05T05:49:46.446Z,62.34
2022-09-05T05:52:58.679Z,61.66
2022-09-05T05:55:52.929Z,61.60
2022-09-05T05:58:59.959Z,61.07
2022-09-05T06:02:05.924Z,60.94
2022-09-05T06:05:09.821Z,60.52
2022-09-05T06:10:44.378Z,60.04
2022-09-05T06:14:50.394Z,59.80
2022-09-05T06:15:01.463Z,59.26
2022-09-05T06:17:47.817Z,59.64
2022-09-05T06:22:08.301Z,59.34
2022-09-05T06:24:27.500Z,58.81
2022-09-05T06:27:27.819Z,58.83
2022-09-05T06:30:03.210Z,58.62
2022-09-05T06:32:56.919Z,58.57
2022-09-05T06:35:46.545Z,57.19
2022-09-05T06:38:44.622Z,57.38
2022-09-05T06:41:31.679Z,57.43
2022-09-05T06:44:35.123Z,56.96
2022-09-05T06:47:23.881Z,57.56
2022-09-05T06:50:23.708Z,57.47
2022-09-05T06:53:36.752Z,55.54
2022-09-05T06:56:28.029Z,55.63
2022-09-05T06:59:39.968Z,55.19
2022-09-05T07:02:33.040Z,54.64
2022-09-05T07:05:39.818Z,54.73
2022-09-05T07:08:36.310Z,54.18
2022-09-05T07:11:16.241Z,54.42
2022-09-05T07:13:57.850Z,54.08
2022-09-05T07:16:41.945Z,53.69
2022-09-05T07:19:27.176Z,53.75
2022-09-05T07:22:46.290Z,53.66
2022-09-05T07:25:21.034Z,53.64
2022-09-05T07:28:26.903Z,53.01
2022-09-05T07:30:50.589Z,52.96
2022-09-05T07:33:25.497Z,52.63
2022-09-05T07:35:58.602Z,51.76
2022-09-05T07:38:38.226Z,51.24
2022-09-05T07:41:24.440Z,50.39
2022-09-05T07:43:56.243Z,50.11
2022-09-05T07:46:30.107Z,49.56
2022-09-05T07:49:06.207Z,49.37
2022-09-05T07:56:55.698Z,49.71
2022-09-05T07:57:08.252Z,49.45
2022-09-05T07:57:31.305Z,48.83
2022-09-05T08:00:26.585Z,49.53
2022-09-05T08:03:02.109Z,48.79
2022-09-05T08:05:42.374Z,49.09
2022-09-05T08:08:15.752Z,49.09
2022-09-05T08:11:22.691Z,49.57
2022-09-05T08:14:25.452Z,49.19
2022-09-05T08:16:49.704Z,49.12
2022-09-05T08:19:47.058Z,49.10
2022-09-05T08:22:23.210Z,48.45
2022-09-05T08:25:01.132Z,48.65
2022-09-05T08:27:38.880Z,48.77
2022-09-05T08:30:26.501Z,47.92
2022-09-05T08:33:11.041Z,47.75
2022-09-05T08:35:46.541Z,47.45
2022-09-05T08:38:18.821Z,47.73
2022-09-05T08:40:56.257Z,47.77
2022-09-05T08:46:39.657Z,47.48
2022-09-05T08:46:45.760Z,47.46
2022-09-05T08:49:46.857Z,47.87
2022-09-05T08:52:29.815Z,46.71
2022-09-05T08:55:13.783Z,46.74
2022-09-05T08:58:04.084Z,45.85
2022-09-05T09:00:43.135Z,47.50
2022-09-05T09:03:29.543Z,46.27
2022-09-05T09:06:26.905Z,45.93
2022-09-05T09:09:11.213Z,46.31
2022-09-05T09:11:53.506Z,45.61
2022-09-05T09:14:36.940Z,45.22
2022-09-05T09:17:26.929Z,45.36
2022-09-05T09:20:14.436Z,45.30
2022-09-05T09:22:56.719Z,45.64
2022-09-05T09:25:33.984Z,45.50
2022-09-05T09:28:47.932Z,45.63
2022-09-05T09:31:33.228Z,44.72
2022-09-05T09:34:32.918Z,45.00
2022-09-05T09:37:54.401Z,44.48
2022-09-05T09:41:02.219Z,44.31
2022-09-05T09:43:55.268Z,44.93
2022-09-05T09:46:39.114Z,43.89
2022-09-05T09:49:27.700Z,43.93
2022-09-05T09:52:36.468Z,43.55
2022-09-05T09:55:52.191Z,43.25
2022-09-05T09:58:59.747Z,42.77
2022-09-05T10:01:40.209Z,43.00
2022-09-05T10:10:36.517Z,43.43
2022-09-05T10:10:52.198Z,42.79
2022-09-05T10:11:51.967Z,42.01
2022-09-05T10:14:36.751Z,42.71
2022-09-05T10:17:32.256Z,42.13
2022-09-05T10:20:18.147Z,41.87
2022-09-05T10:23:04.226Z,40.65
2022-09-05T10:26:08.291Z,41.56
2022-09-05T10:28:42.900Z,40.76
2022-09-05T10:32:58.085Z,40.23
2022-09-05T10:35:07.573Z,40.56
2022-09-05T10:37:13.512Z,41.12
2022-09-05T10:39:48.003Z,39.23
2022-09-05T10:42:25.366Z,41.03
2022-09-05T10:44:57.161Z,40.37
2022-09-05T10:47:38.229Z,40.56
2022-09-05T10:50:27.338Z,41.54
2022-09-05T10:53:25.584Z,41.04
2022-09-05T10:56:07.852Z,39.63
2022-09-05T10:59:33.160Z,38.07
2022-09-05T11:02:29.474Z,38.11
2022-09-05T11:04:50.540Z,39.53
2022-09-05T11:07:37.087Z,37.45
2022-09-05T11:10:14.363Z,37.21
2022-09-05T11:13:08.580Z,37.22
2022-09-05T11:16:03.696Z,38.36
2022-09-05T11:18:55.710Z,37.93
2022-09-05T11:21:33.321Z,37.54
2022-09-05T11:24:12.859Z,36.24
2022-09-05T11:26:51.425Z,36.65
2022-09-05T11:29:42.816Z,36.26
2022-09-05T11:35:45.349Z,35.44
2022-09-05T11:39:58.552Z,36.86
2022-09-05T11:39:59.729Z,36.47
2022-09-05T11:42:09.354Z,36.95
2022-09-05T11:45:08.780Z,36.00
2022-09-05T11:48:23.726Z,36.63
2022-09-05T11:51:41.467Z,36.49
2022-09-05T11:54:50.346Z,35.32
2022-09-05T11:57:46.840Z,35.21
2022-09-05T12:00:33.868Z,35.99
2022-09-05T12:03:59.535Z,34.87
2022-09-05T12:07:27.095Z,35.33
2022-09-05T12:10:06.015Z,36.14
2022-09-05T12:12:43.385Z,34.76
2022-09-05T12:15:34.397Z,33.82
2022-09-05T12:18:19.478Z,34.83
2022-09-05T12:21:03.516Z,35.01
2022-09-05T12:24:28.509Z,35.98
2022-09-05T12:27:41.541Z,35.63
2022-09-05T12:29:48.761Z,34.75
2022-09-05T12:34:25.520Z,33.75
2022-09-05T12:36:12.660Z,35.43
2022-09-05T12:40:57.439Z,34.80
2022-09-05T12:41:42.814Z,34.10
2022-09-05T12:44:44.292Z,33.14
2022-09-05T12:47:21.277Z,33.45
2022-09-05T12:50:14.566Z,35.43
2022-09-05T12:52:47.416Z,33.70
2022-09-05T12:55:26.424Z,33.64
2022-09-05T13:02:57.756Z,35.41
2022-09-05T13:03:12.853Z,35.09
2022-09-05T13:04:15.904Z,33.00
2022-09-05T13:06:43.623Z,33.81
2022-09-05T13:09:22.385Z,34.51
2022-09-05T13:14:50.447Z,35.30
2022-09-05T13:15:11.479Z,35.90
2022-09-05T13:17:54.016Z,33.50
2022-09-05T13:20:34.931Z,33.80
2022-09-05T13:23:18.288Z,32.78
2022-09-05T13:25:58.039Z,33.14
2022-09-05T13:28:38.493Z,35.35
2022-09-05T13:37:59.656Z,33.72
2022-09-05T13:38:00.575Z,34.04
2022-09-05T13:38:04.721Z,35.16
2022-09-05T13:40:05.386Z,34.39
2022-09-05T13:42:40.787Z,34.57
2022-09-05T13:45:18.565Z,34.79
2022-09-05T13:48:02.995Z,35.31
2022-09-05T13:50:38.378Z,34.64
2022-09-05T13:53:16.880Z,35.23
2022-09-05T13:55:57.533Z,34.50
2022-09-05T13:58:39.917Z,34.52
2022-09-05T14:01:30.138Z,35.36
2022-09-05T14:08:17.906Z,35.29
2022-09-05T14:11:12.242Z,36.07
2022-09-05T14:14:04.826Z,35.76
2022-09-05T14:16:53.585Z,36.90
2022-09-05T14:19:43.351Z,36.32
2022-09-05T14:22:36.108Z,37.00
2022-09-05T14:25:12.016Z,37.14
2022-09-05T14:27:46.115Z,36.59
2022-09-05T14:36:08.049Z,37.31
2022-09-05T14:37:42.860Z,37.30
2022-09-05T14:37:52.441Z,37.01
2022-09-05T14:40:19.187Z,36.01
2022-09-05T14:43:26.770Z,36.60
2022-09-05T14:46:22.393Z,36.74
2022-09-05T14:49:12.452Z,37.64
2022-09-05T14:51:46.849Z,36.69
2022-09-05T15:00:27.665Z,37.83
2022-09-05T15:02:42.336Z,37.35
2022-09-05T15:03:06.352Z,38.92
2022-09-05T15:05:41.839Z,38.40
2022-09-05T15:11:24.520Z,38.46
2022-09-05T15:12:20.002Z,38.74
2022-09-05T15:14:08.609Z,37.88
2022-09-05T15:16:45.772Z,38.31
2022-09-05T15:20:05.228Z,38.08
2022-09-05T15:22:39.700Z,38.34
2022-09-05T15:25:18.124Z,38.52
2022-09-05T15:27:49.548Z,38.75
2022-09-05T15:30:27.535Z,38.98
2022-09-05T15:33:15.253Z,38.05
2022-09-05T15:35:46.512Z,37.92
2022-09-05T15:38:29.282Z,38.58
2022-09-05T15:41:20.656Z,39.36
2022-09-05T15:43:58.403Z,39.04
2022-09-05T15:46:51.416Z,39.36
2022-09-05T15:49:42.965Z,39.12
2022-09-05T15:52:35.275Z,39.01
2022-09-05T15:55:13.854Z,40.12
2022-09-05T15:57:49.473Z,39.43
2022-09-05T16:00:42.252Z,39.40
2022-09-05T16:06:10.725Z,39.60
2022-09-05T16:10:50.406Z,39.75
2022-09-05T16:10:59.282Z,39.27
2022-09-05T16:12:19.316Z,40.31
2022-09-05T16:15:14.793Z,40.31
2022-09-05T16:23:15.605Z,40.26
2022-09-05T16:23:26.206Z,40.37
2022-09-05T16:23:40.679Z,40.59
2022-09-05T16:26:25.003Z,40.80
2022-09-05T16:29:01.151Z,40.51
2022-09-05T16:31:41.014Z,41.27
2022-09-05T16:34:20.791Z,40.91
2022-09-05T16:37:07.814Z,41.00
2022-09-05T16:39:50.960Z,41.21
2022-09-05T16:42:45.983Z,41.11
2022-09-05T16:45:28.355Z,41.91
2022-09-05T16:48:07.669Z,41.60
2022-09-05T16:50:50.086Z,41.80
2022-09-05T16:53:30.989Z,41.76
2022-09-05T16:56:08.851Z,42.27
2022-09-05T16:58:41.954Z,42.47
2022-09-05T17:01:36.036Z,42.70
2022-09-05T17:04:15.849Z,43.07
2022-09-05T17:06:55.353Z,43.08
2022-09-05T17:09:27.514Z,43.48
2022-09-05T17:12:02.298Z,43.68
2022-09-05T17:14:41.810Z,44.03
2022-09-05T17:17:54.600Z,44.28
2022-09-05T17:20:14.611Z,44.97
2022-09-05T17:26:46.912Z,44.79
2022-09-05T17:29:25.035Z,45.50
2022-09-05T17:29:50.490Z,45.37
2022-09-05T17:31:57.756Z,45.75
2022-09-05T17:34:58.699Z,46.33
2022-09-05T17:38:17.449Z,46.39
2022-09-05T17:41:43.902Z,46.51
2022-09-05T17:44:25.987Z,47.11
2022-09-05T17:47:15.256Z,47.37
2022-09-05T17:49:47.016Z,47.34
2022-09-05T17:52:24.227Z,47.37
2022-09-05T17:54:57.507Z,47.97
2022-09-05T17:57:39.374Z,47.77
2022-09-05T18:00:43.156Z,47.90
2022-09-05T18:04:16.588Z,48.27
2022-09-05T18:06:58.973Z,48.51
2022-09-05T18:13:13.054Z,48.60
2022-09-05T18:16:12.510Z,49.04
2022-09-05T18:19:32.621Z,48.74
2022-09-05T18:21:54.110Z,49.31
2022-09-05T18:24:35.067Z,49.17
2022-09-05T18:27:39.376Z,49.25
2022-09-05T18:30:13.267Z,49.45
2022-09-05T18:32:48.034Z,49.78
2022-09-05T18:35:36.271Z,49.73
2022-09-05T18:38:50.524Z,49.98
2022-09-05T18:41:20.211Z,50.23
2022-09-05T18:44:13.579Z,50.44
2022-09-05T18:46:51.267Z,50.50
2022-09-05T18:50:25.752Z,50.51
2022-09-05T18:52:23.327Z,50.80
2022-09-05T18:56:09.988Z,50.50
2022-09-05T18:58:07.383Z,50.71
2022-09-05T19:00:44.661Z,50.77
2022-09-05T19:03:25.052Z,51.22
2022-09-05T19:06:04.266Z,51.20
2022-09-05T19:08:54.452Z,51.66
2022-09-05T19:11:30.897Z,51.70
2022-09-05T19:14:25.789Z,51.98
2022-09-05T19:17:07.554Z,51.81
2022-09-05T19:20:32.246Z,52.14
2022-09-05T19:23:11.179Z,52.13
2022-09-05T19:25:46.275Z,52.72
2022-09-05T19:36:51.434Z,52.96
2022-09-05T19:36:58.388Z,53.05
2022-09-05T19:37:13.760Z,53.22
2022-09-05T19:37:30.541Z,53.56
2022-09-05T19:44:15.833Z,53.41
2022-09-05T19:47:39.123Z,53.81
2022-09-05T19:47:40.838Z,53.66
2022-09-05T19:48:34.466Z,53.67
2022-09-05T19:51:17.073Z,53.97
2022-09-05T19:54:03.742Z,53.81
2022-09-05T19:56:39.133Z,54.01
2022-09-05T19:59:23.154Z,54.17
2022-09-05T20:01:53.458Z,54.15
2022-09-05T20:04:26.573Z,54.35
2022-09-05T20:06:56.767Z,54.88
2022-09-05T20:09:28.773Z,54.84
2022-09-05T20:12:00.138Z,55.17
2022-09-05T20:14:35.732Z,55.31
2022-09-05T20:17:21.159Z,55.17
2022-09-05T20:20:06.919Z,54.86
2022-09-05T20:22:49.468Z,54.65
2022-09-05T20:25:35.214Z,55.12
2022-09-05T20:28:10.337Z,55.22
2022-09-05T20:30:44.782Z,55.52
2022-09-05T20:33:20.577Z,55.38
2022-09-05T20:41:32.181Z,55.46
2022-09-05T20:43:20.810Z,55.38
2022-09-05T20:43:31.716Z,55.95
2022-09-05T20:44:41.268Z,56.92
2022-09-05T20:54:04.319Z,56.47
2022-09-05T20:54:16.977Z,56.33
2022-09-05T20:54:28.652Z,57.42
2022-09-05T20:56:03.627Z,57.36
2022-09-05T20:58:35.034Z,57.60
2022-09-05T21:01:21.120Z,58.05
2022-09-05T21:03:59.009Z,58.08
2022-09-05T21:06:33.711Z,58.21
2022-09-05T21:09:16.010Z,58.05
2022-09-05T21:11:56.385Z,58.38
2022-09-05T21:14:29.428Z,58.85
2022-09-05T21:17:15.738Z,58.62
2022-09-05T21:19:55.382Z,58.82
2022-09-05T21:22:33.322Z,59.12
2022-09-05T21:25:25.139Z,58.96
2022-09-05T21:28:08.804Z,59.10
2022-09-05T21:30:41.435Z,59.64
2022-09-05T21:33:18.979Z,59.60
2022-09-05T21:35:53.324Z,59.94
2022-09-05T21:38:32.527Z,59.61
2022-09-05T21:41:03.689Z,59.97
2022-09-05T21:47:39.157Z,59.89
2022-09-05T21:47:42.995Z,59.76
2022-09-05T21:49:21.218Z,60.05
2022-09-05T21:51:53.311Z,60.59
2022-09-05T21:59:21.408Z,60.36
2022-09-05T21:59:27.857Z,60.71
2022-09-05T22:00:11.543Z,59.87
2022-09-05T22:02:41.762Z,59.93
2022-09-05T22:05:13.471Z,59.85
2022-09-05T22:07:44.801Z,59.59
2022-09-05T22:10:15.490Z,59.40
2022-09-05T22:12:45.962Z,59.92
2022-09-05T22:15:27.471Z,59.99
2022-09-05T22:18:16.537Z,60.00
2022-09-05T22:20:58.585Z,60.29
2022-09-05T22:23:45.429Z,59.88
2022-09-05T22:26:18.357Z,60.46
2022-09-05T22:28:49.829Z,60.63
2022-09-05T22:31:21.789Z,60.64
2022-09-05T22:33:52.023Z,60.74
2022-09-05T22:36:23.103Z,60.54
2022-09-05T22:38:54.999Z,60.69
2022-09-05T22:41:30.185Z,60.48
2022-09-05T22:44:01.003Z,60.75
2022-09-05T22:46:31.969Z,61.37
2022-09-05T22:49:01.856Z,60.81
2022-09-05T22:51:31.829Z,61.51
2022-09-05T22:54:03.060Z,61.53
2022-09-05T22:56:35.421Z,61.63
2022-09-05T22:59:05.978Z,62.35
2022-09-05T23:01:35.899Z,62.19
2022-09-05T23:04:05.948Z,62.52
2022-09-05T23:06:37.041Z,62.50
2022-09-05T23:09:09.703Z,62.05
2022-09-05T23:11:40.657Z,62.45
2022-09-05T23:14:11.051Z,62.53
2022-09-05T23:16:41.088Z,62.83
2022-09-05T23:19:10.903Z,63.40
2022-09-05T23:21:41.027Z,63.56
2022-09-05T23:24:12.384Z,63.09
2022-09-05T23:26:42.601Z,63.68
2022-09-05T23:29:12.565Z,63.62
2022-09-05T23:31:42.439Z,63.61
2022-09-05T23:34:12.303Z,63.97
2022-09-05T23:36:42.420Z,63.62
2022-09-05T23:39:13.799Z,64.62
2022-09-05T23:41:43.850Z,64.80
2022-09-05T23:44:13.734Z,64.32
2022-09-05T23:46:43.824Z,64.73
2022-09-05T23:49:13.775Z,65.10
2022-09-05T23:51:45.886Z,64.82
2022-09-05T23:54:17.116Z,65.07
2022-09-05T23:56:47.139Z,65.03
2022-09-05T23:59:17.180Z,64.30
